Time;durP1;ratioP1;P1;durP2;ratioP2;P2;SDS_P1;SDS_P2;PMS_P1;PMS_P2;Temp;Humidity;BMP_temperature;BMP_pressure;BME280_temperature;BME280_humidity;BME280_pressure;Samples;Min_cycle;Max_cycle;Signal;HPM_P1;HPM_P2
2023/06/09 00:00:47;;;;;;;6.95;3.85;;;20.10;99.90;;;;;;5100748;28;20449;-77
2023/06/09 00:03:16;;;;;;;6.45;3.85;;;20.10;99.90;;;;;;5072385;28;20063;-75
2023/06/09 00:05:42;;;;;;;5.88;3.53;;;20.20;99.90;;;;;;5072354;28;20151;-75
2023/06/09 00:08:09;;;;;;;6.05;3.33;;;20.20;99.90;;;;;;5090359;28;20062;-75
2023/06/09 00:10:35;;;;;;;7.18;4.25;;;20.10;99.90;;;;;;5103035;28;20036;-75
2023/06/09 00:13:01;;;;;;;6.60;3.53;;;20.20;99.90;;;;;;5092642;28;20024;-75
2023/06/09 00:15:27;;;;;;;7.57;3.50;;;20.20;99.90;;;;;;5111119;28;20368;-76
2023/06/09 00:17:54;;;;;;;5.55;3.47;;;20.20;99.90;;;;;;5110753;28;20097;-76
2023/06/09 00:20:20;;;;;;;7.78;3.50;;;20.20;99.90;;;;;;5110693;28;20032;-76
2023/06/09 00:22:48;;;;;;;11.10;3.75;;;20.20;99.90;;;;;;5110834;28;20102;-76
2023/06/09 00:25:19;;;;;;;7.07;3.80;;;20.10;99.90;;;;;;5110722;28;20124;-77
2023/06/09 00:27:46;;;;;;;7.55;3.70;;;20.10;99.90;;;;;;5111699;28;20233;-76
2023/06/09 00:30:15;;;;;;;9.77;4.00;;;20.10;99.90;;;;;;5090375;28;20349;-75
2023/06/09 00:32:42;;;;;;;5.13;3.53;;;20.00;99.90;;;;;;5094129;28;20032;-75
2023/06/09 00:35:09;;;;;;;7.63;4.10;;;19.90;99.90;;;;;;5094058;28;20016;-75
2023/06/09 00:37:35;;;;;;;5.15;3.60;;;19.90;99.90;;;;;;5094113;28;20487;-77
2023/06/09 00:40:03;;;;;;;6.10;3.60;;;19.90;99.90;;;;;;5101751;28;20034;-76
2023/06/09 00:42:30;;;;;;;5.53;3.28;;;19.90;99.90;;;;;;5114609;28;20336;-76
2023/06/09 00:44:56;;;;;;;7.65;3.85;;;19.80;99.90;;;;;;5095712;28;20374;-76
2023/06/09 00:47:22;;;;;;;6.75;4.18;;;19.70;99.90;;;;;;5114478;28;20038;-76
2023/06/09 00:49:49;;;;;;;5.50;3.40;;;19.70;99.90;;;;;;5114296;28;20051;-76
2023/06/09 00:52:16;;;;;;;7.97;4.00;;;19.70;99.90;;;;;;5114222;28;20462;-76
2023/06/09 00:54:42;;;;;;;6.53;3.78;;;19.70;99.90;;;;;;5114208;28;20047;-77
2023/06/09 00:57:10;;;;;;;6.45;3.78;;;19.70;99.90;;;;;;5114241;28;20023;-75
2023/06/09 00:59:37;;;;;;;8.77;3.67;;;19.70;99.90;;;;;;5113055;28;20123;-75
2023/06/09 01:02:07;;;;;;;7.80;4.05;;;19.70;99.90;;;;;;5093289;28;20126;-75
2023/06/09 01:04:35;;;;;;;10.82;4.70;;;19.80;99.90;;;;;;5093883;28;20035;-77
2023/06/09 01:07:28;;;;;;;7.60;3.72;;;19.70;99.90;;;;;;5093187;28;20448;-76
2023/06/09 01:10:11;;;;;;;7.18;3.80;;;19.70;99.90;;;;;;5100719;28;20420;-76
2023/06/09 01:12:59;;;;;;;5.95;3.47;;;19.80;99.90;;;;;;5113525;28;20109;-76
2023/06/09 01:15:37;;;;;;;7.03;3.92;;;19.70;99.90;;;;;;5113945;28;20035;-76
2023/06/09 01:18:08;;;;;;;11.90;4.22;;;19.70;99.90;;;;;;5114012;28;20015;-76
2023/06/09 01:21:00;;;;;;;7.68;3.92;;;19.60;99.90;;;;;;5114048;28;20031;-76
2023/06/09 01:23:32;;;;;;;7.45;3.88;;;19.60;99.90;;;;;;5113484;28;20054;-76
2023/06/09 01:26:00;;;;;;;7.30;3.92;;;19.50;99.90;;;;;;5113924;28;20062;-77
2023/06/09 01:28:28;;;;;;;5.95;3.88;;;19.50;99.90;;;;;;5113667;28;20046;-76
2023/06/09 01:30:55;;;;;;;8.20;4.35;;;19.50;99.90;;;;;;5101887;28;20383;-76
2023/06/09 01:33:24;;;;;;;7.68;4.40;;;19.40;99.90;;;;;;5092969;28;20039;-75
2023/06/09 01:35:52;;;;;;;6.50;4.22;;;19.50;99.90;;;;;;5093297;28;20110;-76
2023/06/09 01:38:20;;;;;;;8.15;4.28;;;19.50;99.90;;;;;;5092836;28;20064;-77
2023/06/09 01:40:47;;;;;;;10.98;4.38;;;19.50;99.90;;;;;;5106371;28;20034;-76
2023/06/09 01:43:13;;;;;;;9.43;3.85;;;19.60;99.90;;;;;;5113288;28;20387;-76
2023/06/09 01:45:39;;;;;;;8.80;4.32;;;19.50;99.90;;;;;;5113161;28;20032;-77
2023/06/09 01:48:12;;;;;;;8.02;4.20;;;19.50;99.90;;;;;;5113199;28;20421;-77
2023/06/09 01:50:49;;;;;;;10.95;4.63;;;19.50;99.90;;;;;;5113622;28;20450;-75
2023/06/09 01:53:20;;;;;;;6.85;4.60;;;19.50;99.90;;;;;;5113010;28;20029;-76
2023/06/09 01:55:52;;;;;;;15.27;4.55;;;19.40;99.90;;;;;;5113404;28;20034;-77
2023/06/09 01:58:23;;;;;;;9.02;4.45;;;19.40;99.90;;;;;;5113114;28;20019;-77
2023/06/09 02:00:50;;;;;;;8.93;4.22;;;19.40;99.90;;;;;;5102099;28;20027;-76
2023/06/09 02:03:20;;;;;;;8.65;4.68;;;19.40;99.90;;;;;;5092441;28;20369;-76
2023/06/09 02:05:47;;;;;;;11.48;4.47;;;19.40;99.90;;;;;;5092493;28;20058;-76
2023/06/09 02:08:14;;;;;;;7.97;4.32;;;19.40;99.90;;;;;;5092160;28;20028;-76
2023/06/09 02:10:40;;;;;;;;;;;19.40;99.90;;;;;;5105735;28;20112;-76
2023/06/09 02:13:21;;;;;;;6.97;4.03;;;19.40;99.90;;;;;;5112870;28;19903;-75
2023/06/09 02:15:48;;;;;;;10.38;4.10;;;19.30;99.90;;;;;;5112770;28;20026;-76
2023/06/09 02:18:17;;;;;;;7.85;4.05;;;19.40;99.90;;;;;;5112802;28;20419;-76
2023/06/09 02:20:43;;;;;;;7.22;4.20;;;19.40;99.90;;;;;;5093964;28;20067;-76
2023/06/09 02:23:10;;;;;;;8.10;4.63;;;19.40;99.90;;;;;;5112102;28;20578;-77
2023/06/09 02:25:37;;;;;;;9.63;4.55;;;19.40;99.90;;;;;;5112482;28;20020;-76
2023/06/09 02:28:06;;;;;;;7.03;4.55;;;19.30;99.90;;;;;;5112306;28;20483;-75
2023/06/09 02:30:33;;;;;;;8.23;4.65;;;19.30;99.90;;;;;;5103589;28;20020;-76
2023/06/09 02:33:00;;;;;;;9.10;4.43;;;19.30;99.90;;;;;;5073349;28;20376;-74
2023/06/09 02:35:26;;;;;;;8.88;4.38;;;19.30;99.90;;;;;;5091721;28;20024;-76
2023/06/09 02:37:52;;;;;;;8.70;4.47;;;19.30;99.90;;;;;;5091395;28;20058;-75
2023/06/09 02:40:19;;;;;;;8.40;5.07;;;19.30;99.90;;;;;;5101883;28;20023;-76
2023/06/09 02:42:46;;;;;;;9.50;4.60;;;19.30;99.90;;;;;;5111559;28;20030;-76
2023/06/09 02:45:12;;;;;;;9.15;4.47;;;19.30;99.90;;;;;;5094067;28;20030;-76
2023/06/09 02:47:38;;;;;;;7.20;4.47;;;19.30;99.90;;;;;;5111347;28;20083;-75
2023/06/09 02:50:05;;;;;;;6.97;4.85;;;19.30;99.90;;;;;;5111627;28;20130;-77
2023/06/09 02:52:32;;;;;;;;;;;19.30;99.90;;;;;;5111027;28;20159;-76
2023/06/09 02:54:59;;;;;;;8.30;5.57;;;19.30;99.90;;;;;;5111672;28;19960;-76
2023/06/09 02:57:26;;;;;;;9.32;5.53;;;19.20;99.90;;;;;;5093283;28;20051;-77
2023/06/09 02:59:53;;;;;;;8.93;4.80;;;19.20;99.90;;;;;;5108977;28;20510;-76
2023/06/09 03:02:19;;;;;;;8.10;5.20;;;19.20;99.90;;;;;;5091726;28;20032;-77
2023/06/09 03:04:45;;;;;;;11.80;5.78;;;19.20;99.90;;;;;;5091762;28;20016;-76
2023/06/09 03:07:13;;;;;;;9.52;5.10;;;19.20;99.90;;;;;;5092058;28;20036;-76
2023/06/09 03:09:43;;;;;;;10.52;5.10;;;19.10;99.90;;;;;;5097072;28;20027;-75
2023/06/09 03:12:10;;;;;;;9.38;5.05;;;19.20;99.90;;;;;;5089079;28;20118;-76
2023/06/09 03:14:36;;;;;;;;;;;19.20;99.90;;;;;;5091035;28;20020;-75
2023/06/09 03:17:04;;;;;;;;;;;19.20;99.90;;;;;;5091027;28;20023;-74
2023/06/09 03:19:30;;;;;;;;;;;19.10;99.90;;;;;;5090156;28;20279;-76
2023/06/09 03:21:57;;;;;;;;;;;19.10;99.90;;;;;;5092230;28;19912;-77
2023/06/09 03:24:23;;;;;;;;;;;19.00;99.90;;;;;;5092441;28;19910;-76
2023/06/09 03:26:49;;;;;;;;;;;19.00;99.90;;;;;;5092727;28;19998;-76
2023/06/09 03:29:15;;;;;;;;;;;19.10;99.90;;;;;;5092699;28;19947;-76
2023/06/09 03:31:41;;;;;;;;;;;19.10;99.90;;;;;;5073308;28;19904;-76
2023/06/09 03:34:07;;;;;;;;;;;19.10;99.90;;;;;;5072867;28;19927;-75
2023/06/09 03:36:35;;;;;;;;;;;19.10;99.90;;;;;;5072509;28;20283;-76
2023/06/09 03:39:02;;;;;;;;;;;19.20;99.90;;;;;;5072264;28;19964;-75
2023/06/09 03:41:28;;;;;;;;;;;19.20;99.90;;;;;;5092187;28;20024;-76
2023/06/09 03:43:54;;;;;;;;;;;19.10;99.90;;;;;;5092425;28;19912;-75
2023/06/09 03:46:21;;;;;;;;;;;19.10;99.90;;;;;;5092424;28;20352;-75
2023/06/09 03:48:46;;;;;;;;;;;19.20;99.90;;;;;;5092167;28;20267;-75
2023/06/09 03:51:12;;;;;;;;;;;19.20;99.90;;;;;;5092743;28;19908;-76
2023/06/09 03:53:38;;;;;;;;;;;19.20;99.90;;;;;;5092136;28;19903;-76
2023/06/09 03:56:04;;;;;;;;;;;19.20;99.90;;;;;;5092229;28;19908;-74
2023/06/09 03:58:30;;;;;;;;;;;19.20;99.90;;;;;;5092227;28;19904;-76
2023/06/09 04:00:56;;;;;;;;;;;19.10;99.90;;;;;;5080497;28;19911;-76
2023/06/09 04:03:22;;;;;;;;;;;19.00;99.90;;;;;;5074183;28;19919;-76
2023/06/09 04:05:48;;;;;;;;;;;18.90;99.90;;;;;;5076194;28;19911;-76
2023/06/09 04:08:14;;;;;;;;;;;18.80;99.90;;;;;;5075708;28;20272;-76
2023/06/09 04:10:40;;;;;;;;;;;18.90;99.90;;;;;;5092930;28;19921;-77
2023/06/09 04:13:07;;;;;;;;;;;18.80;99.90;;;;;;5116818;28;19914;-76
2023/06/09 04:15:33;;;;;;;;;;;18.80;99.90;;;;;;5116463;28;19904;-76
2023/06/09 04:17:59;;;;;;;;;;;18.90;99.90;;;;;;5117163;28;19910;-77
2023/06/09 04:20:26;;;;;;;;;;;18.90;99.90;;;;;;5117321;28;19999;-76
2023/06/09 04:22:52;;;;;;;;;;;19.00;99.90;;;;;;5098725;28;19916;-76
2023/06/09 04:25:27;;;;;;;;;;;18.90;99.90;;;;;;5117545;28;19910;-77
2023/06/09 04:27:54;;;;;;;;;;;19.00;99.90;;;;;;5117173;28;20394;-76
2023/06/09 04:30:26;;;;;;;;;;;18.90;99.90;;;;;;5110322;28;20386;-75
2023/06/09 04:32:56;;;;;;;;;;;18.90;99.90;;;;;;5096888;28;19918;-75
2023/06/09 04:35:22;;;;;;;;;;;19.00;99.90;;;;;;5078292;28;19960;-76
2023/06/09 04:37:51;;;;;;;;;;;19.00;99.90;;;;;;5096384;28;19911;-75
2023/06/09 04:40:23;;;;;;;;;;;19.00;99.90;;;;;;5106471;28;19903;-75
2023/06/09 04:42:51;;;;;;;;;;;19.10;99.90;;;;;;5116885;28;20274;-76
2023/06/09 04:45:18;;;;;;;;;;;19.20;99.90;;;;;;5116673;28;20265;-75
2023/06/09 04:47:48;;;;;;;;;;;19.20;99.90;;;;;;5116508;28;19916;-75
2023/06/09 04:50:17;;;;;;;;;;;19.30;99.90;;;;;;5116491;28;19979;-76
2023/06/09 04:52:44;;;;;;;;;;;19.40;99.90;;;;;;5116476;28;19904;-74
2023/06/09 04:55:12;;;;;;;;;;;19.40;99.90;;;;;;5116629;28;19904;-75
2023/06/09 04:57:38;;;;;;;;;;;19.50;99.90;;;;;;5116544;28;19904;-76
2023/06/09 05:00:08;;;;;;;;;;;19.60;99.90;;;;;;5111706;28;19904;-75
2023/06/09 05:02:34;;;;;;;;;;;20.50;99.90;;;;;;5077715;28;19912;-75
2023/06/09 05:05:00;;;;;;;;;;;21.60;99.90;;;;;;5077767;28;19904;-77
2023/06/09 05:07:26;;;;;;;;;;;22.60;99.90;;;;;;5095628;28;20410;-75
2023/06/09 05:09:52;;;;;;;;;;;23.70;99.90;;;;;;5097671;28;19903;-76
2023/06/09 05:12:17;;;;;;;;;;;24.60;99.90;;;;;;5115885;28;19954;-75
2023/06/09 05:14:43;;;;;;;;;;;24.40;99.90;;;;;;5096518;28;19966;-75
2023/06/09 05:17:11;;;;;;;;;;;25.20;99.90;;;;;;5116217;28;19919;-75
2023/06/09 05:19:37;;;;;;;;;;;25.70;99.90;;;;;;5116210;28;19908;-75
2023/06/09 05:22:03;;;;;;;;;;;25.70;99.90;;;;;;5115573;28;20027;-75
2023/06/09 05:24:29;;;;;;;;;;;25.60;99.90;;;;;;5116219;28;19954;-75
2023/06/09 05:26:54;;;;;;;;;;;26.10;99.90;;;;;;5116199;28;19956;-74
2023/06/09 05:29:21;;;;;;;;;;;26.80;99.90;;;;;;5097004;28;19911;-76
2023/06/09 05:31:46;;;;;;;;;;;28.50;99.90;;;;;;5096242;28;19904;-75
2023/06/09 05:34:12;;;;;;;;;;;29.10;99.90;;;;;;5094859;28;20014;-77
2023/06/09 05:36:38;;;;;;;;;;;29.00;99.90;;;;;;5094851;28;19911;-78
2023/06/09 05:39:04;;;;;;;;;;;29.00;99.90;;;;;;5094666;28;20061;-77
2023/06/09 05:41:30;;;;;;;;;;;29.90;99.90;;;;;;5074960;28;20340;-78
2023/06/09 05:43:57;;;;;;;;;;;31.70;99.90;;;;;;5074848;28;19992;-76
2023/06/09 05:46:24;;;;;;;;;;;32.20;99.90;;;;;;5074624;28;19995;-77
2023/06/09 05:48:50;;;;;;;;;;;32.00;99.90;;;;;;5074537;28;19904;-77
2023/06/09 05:51:17;;;;;;;;;;;32.60;99.90;;;;;;5073578;28;19962;-76
2023/06/09 05:53:43;;;;;;;;;;;31.10;99.90;;;;;;5073405;28;20014;-76
2023/06/09 05:56:09;;;;;;;;;;;31.00;99.90;;;;;;5055575;28;20340;-77
2023/06/09 05:58:36;;;;;;;;;;;32.00;99.90;;;;;;5073721;28;20355;-77
2023/06/09 06:01:07;;;;;;;;;;;32.20;99.90;;;;;;5085965;28;19912;-76
2023/06/09 06:03:33;;;;;;;;;;;32.70;99.90;;;;;;5093656;28;19908;-77
2023/06/09 06:05:58;;;;;;;;;;;33.10;99.90;;;;;;5075298;28;19926;-77
2023/06/09 06:08:24;;;;;;;;;;;34.10;99.90;;;;;;5093454;28;20245;-77
2023/06/09 06:10:51;;;;;;;;;;;34.80;99.90;;;;;;5108197;28;19933;-75
2023/06/09 06:13:17;;;;;;;;;;;35.20;99.90;;;;;;5114154;28;19912;-76
2023/06/09 06:15:43;;;;;;;;;;;36.00;99.90;;;;;;5095186;28;20288;-76
2023/06/09 06:18:09;;;;;;;;;;;36.00;99.90;;;;;;5095214;28;19904;-77
2023/06/09 06:20:35;;;;;;;;;;;36.40;99.90;;;;;;5114280;28;20301;-76
2023/06/09 06:23:01;;;;;;;;;;;35.80;99.90;;;;;;5113712;28;19912;-77
2023/06/09 06:25:28;;;;;;;;;;;35.10;99.90;;;;;;5113813;28;20028;-77
2023/06/09 06:27:55;;;;;;;;;;;35.90;99.90;;;;;;5114097;28;19942;-77
2023/06/09 06:30:21;;;;;;;;;;;35.50;99.80;;;;;;5107152;28;19904;-77
2023/06/09 06:32:52;;;;;;;;;;;35.40;99.30;;;;;;5093490;28;19911;-78
2023/06/09 06:35:24;;;;;;;;;;;35.60;98.30;;;;;;5093202;28;19946;-75
2023/06/09 06:37:50;;;;;;;;;;;36.90;96.70;;;;;;5092219;28;19998;-77
2023/06/09 06:40:16;;;;;;;;;;;36.70;96.20;;;;;;5103792;28;19926;-76
2023/06/09 06:42:42;;;;;;;;;;;37.40;94.90;;;;;;5096075;28;20446;-76
2023/06/09 06:45:08;;;;;;;;;;;37.60;94.20;;;;;;5113522;28;19943;-77
2023/06/09 06:47:34;;;;;;;;;;;38.00;94.40;;;;;;5113277;28;19998;-76
2023/06/09 06:50:00;;;;;;;;;;;39.20;94.90;;;;;;5113322;28;19973;-76
2023/06/09 06:52:26;;;;;;;;;;;40.20;94.00;;;;;;5113004;28;20211;-77
2023/06/09 06:54:52;;;;;;;;;;;40.80;92.60;;;;;;5113654;28;19903;-76
2023/06/09 06:57:18;;;;;;;;;;;40.10;92.40;;;;;;5113582;28;19915;-76
2023/06/09 06:59:44;;;;;;;;;;;38.70;92.30;;;;;;5111910;28;20292;-77
2023/06/09 07:02:10;;;;;;;;;;;38.00;92.70;;;;;;5091497;28;19966;-76
2023/06/09 07:04:36;;;;;;;;;;;36.30;93.30;;;;;;5092918;28;19904;-76
2023/06/09 07:07:02;;;;;;;;;;;36.60;93.60;;;;;;5092711;28;20078;-76
2023/06/09 07:09:28;;;;;;;;;;;36.80;93.90;;;;;;5077690;28;20267;-76
2023/06/09 07:11:54;;;;;;;;;;;37.00;93.50;;;;;;5113199;28;19923;-77
2023/06/09 07:14:20;;;;;;;;;;;37.60;92.90;;;;;;5113270;28;19922;-75
2023/06/09 07:16:46;;;;;;;;;;;37.90;92.00;;;;;;5113063;28;19949;-77
2023/06/09 07:19:11;;;;;;;;;;;37.80;91.50;;;;;;5113238;28;20023;-75
2023/06/09 07:21:37;;;;;;;;;;;36.50;92.50;;;;;;5112700;28;19960;-76
2023/06/09 07:24:03;;;;;;;;;;;36.20;92.60;;;;;;5112407;28;19904;-77
2023/06/09 07:26:30;;;;;;;;;;;35.70;92.00;;;;;;5113156;28;20293;-77
2023/06/09 07:28:55;;;;;;;;;;;35.00;92.10;;;;;;5112669;28;19904;-77
2023/06/09 07:31:21;;;;;;;;;;;34.30;92.30;;;;;;5097132;28;19926;-76
2023/06/09 07:33:47;;;;;;;;;;;34.30;94.10;;;;;;5092379;28;19908;-76
2023/06/09 07:36:13;;;;;;;;;;;34.10;95.40;;;;;;5092390;28;20297;-74
2023/06/09 07:38:39;;;;;;;;;;;32.90;96.90;;;;;;5091621;28;19908;-75
2023/06/09 07:41:05;;;;;;;;;;;32.30;98.20;;;;;;5108819;28;19904;-75
2023/06/09 07:43:31;;;;;;;;;;;32.40;97.80;;;;;;5112491;28;19917;-76
2023/06/09 07:45:57;;;;;;;;;;;32.50;97.80;;;;;;5112422;28;19916;-75
2023/06/09 07:48:23;;;;;;;;;;;32.70;97.70;;;;;;5093064;28;20364;-75
2023/06/09 07:50:49;;;;;;;;;;;32.70;98.20;;;;;;5111939;28;19904;-76
2023/06/09 07:53:15;;;;;;;;;;;32.90;98.60;;;;;;5111640;28;20339;-75
2023/06/09 07:55:41;;;;;;;;;;;33.00;99.40;;;;;;5112507;28;19904;-76
2023/06/09 07:58:06;;;;;;;;;;;32.20;99.50;;;;;;5111885;28;19903;-77
2023/06/09 08:00:32;;;;;;;;;;;32.10;99.70;;;;;;5103528;28;19927;-76
2023/06/09 08:03:00;;;;;;;;;;;32.30;99.70;;;;;;5091931;28;19918;-76
2023/06/09 08:05:26;;;;;;;;;;;32.10;99.90;;;;;;5091340;28;19907;-75
2023/06/09 08:07:52;;;;;;;;;;;31.50;99.90;;;;;;5091002;28;19904;-76
2023/06/09 08:10:18;;;;;;;;;;;31.20;99.90;;;;;;5093788;28;19937;-75
2023/06/09 08:12:44;;;;;;;;;;;30.80;99.90;;;;;;5093290;28;19985;-77
2023/06/09 08:15:10;;;;;;;;;;;30.60;99.90;;;;;;5112036;28;19989;-77
2023/06/09 08:17:36;;;;;;;;;;;31.20;99.90;;;;;;5112267;28;20308;-77
2023/06/09 08:20:03;;;;;;;;;;;31.00;99.90;;;;;;5112403;28;19904;-76
2023/06/09 08:22:30;;;;;;;;;;;31.00;99.90;;;;;;5112113;28;19911;-76
2023/06/09 08:24:56;;;;;;;;;;;30.70;99.90;;;;;;5112035;28;19911;-76
2023/06/09 08:27:22;;;;;;;;;;;31.00;99.90;;;;;;5094001;28;19907;-79
2023/06/09 08:29:49;;;;;;;;;;;31.30;99.90;;;;;;5110073;28;19911;-76
2023/06/09 08:32:15;;;;;;;;;;;31.20;99.90;;;;;;5092481;28;19994;-74
2023/06/09 08:34:41;;;;;;;;;;;31.40;99.90;;;;;;5091967;28;19904;-77
2023/06/09 08:37:08;;;;;;;;;;;31.50;99.90;;;;;;5092264;28;19904;-75
2023/06/09 08:39:34;;;;;;;;;;;31.50;99.90;;;;;;5095695;28;19908;-76
2023/06/09 08:42:01;;;;;;;;;;;31.40;99.90;;;;;;5112043;28;19990;-76
2023/06/09 08:44:28;;;;;;;;;;;31.10;99.90;;;;;;5112356;28;20334;-77
2023/06/09 08:46:57;;;;;;;;;;;30.90;99.90;;;;;;5112167;28;19903;-77
2023/06/09 08:49:23;;;;;;;;;;;30.90;99.90;;;;;;5112277;28;19908;-76
2023/06/09 08:51:49;;;;;;;;;;;30.70;99.90;;;;;;5115910;28;20367;-76
2023/06/09 08:54:15;;;;;;;;;;;30.70;99.90;;;;;;5096912;28;19903;-76
2023/06/09 08:56:41;;;;;;;;;;;30.50;99.40;;;;;;5115541;28;19911;-76
2023/06/09 08:59:07;;;;;;;;;;;30.80;98.90;;;;;;5115467;28;19945;-75
2023/06/09 09:01:36;;;;;;;;;;;31.00;99.40;;;;;;5099074;28;20473;-76
2023/06/09 09:04:02;;;;;;;;;;;31.10;98.20;;;;;;5095158;28;19908;-75
2023/06/09 09:06:28;;;;;;;;;;;30.70;98.10;;;;;;5094888;28;20359;-76
2023/06/09 09:08:53;;;;;;;;;;;29.90;98.60;;;;;;5094623;28;19911;-77
2023/06/09 09:11:19;;;;;;;;;;;29.50;99.10;;;;;;5091184;28;19934;-75
2023/06/09 09:13:49;;;;;;;;;;;29.30;99.50;;;;;;5094337;28;19939;-72
2023/06/09 09:16:15;;;;;;;;;;;29.40;98.40;;;;;;5094243;28;19908;-76
2023/06/09 09:18:47;;;;;;;;;;;29.60;97.90;;;;;;5094542;28;19904;-75
2023/06/09 09:21:22;;;;;;;;;;;29.70;98.50;;;;;;5094491;28;20002;-75
2023/06/09 09:23:55;;;;;;;;;;;29.50;98.40;;;;;;5092668;28;19955;-77
2023/06/09 09:26:26;;;;;;;;;;;29.70;99.20;;;;;;5094205;28;20000;-76
2023/06/09 09:28:55;;;;;;;;;;;29.30;98.40;;;;;;5094581;28;19904;-76
2023/06/09 09:31:29;;;;;;;;;;;29.60;99.30;;;;;;5079179;28;19904;-76
2023/06/09 09:33:55;;;;;;;;;;;29.90;98.80;;;;;;5074176;28;19904;-75
2023/06/09 09:36:21;;;;;;;;;;;29.60;98.60;;;;;;5074391;28;19999;-76
2023/06/09 09:38:47;;;;;;;;;;;29.70;99.00;;;;;;5073821;28;19904;-76
2023/06/09 09:41:13;;;;;;;;;;;29.60;98.60;;;;;;5091418;28;19904;-75
2023/06/09 09:43:40;;;;;;;;;;;29.90;97.70;;;;;;5092530;28;19908;-76
2023/06/09 09:46:07;;;;;;;;;;;30.30;98.10;;;;;;5093796;28;19904;-76
2023/06/09 09:48:35;;;;;;;;;;;30.40;97.30;;;;;;5094418;28;20016;-75
2023/06/09 09:51:00;;;;;;;;;;;30.10;96.70;;;;;;5093705;28;19904;-75
2023/06/09 09:53:27;;;;;;;;;;;29.80;97.10;;;;;;5093576;28;19911;-76
2023/06/09 09:55:54;;;;;;;;;;;29.30;97.30;;;;;;5092555;28;19911;-76
2023/06/09 09:58:28;;;;;;;;;;;29.20;97.90;;;;;;5093886;28;19923;-76
2023/06/09 10:00:57;;;;;;;;;;;29.00;98.80;;;;;;5081530;28;19927;-76
2023/06/09 10:03:23;;;;;;;;;;;29.20;99.80;;;;;;5072728;28;20149;-75
2023/06/09 10:05:49;;;;;;;;;;;29.30;98.90;;;;;;5073284;28;20385;-77
2023/06/09 10:08:18;;;;;;;;;;;29.30;98.60;;;;;;5073223;28;19997;-76
2023/06/09 10:10:45;;;;;;;;;;;29.50;98.60;;;;;;5088427;28;19904;-75
2023/06/09 10:13:12;;;;;;;;;;;29.40;98.40;;;;;;5114246;28;19918;-76
2023/06/09 10:15:41;;;;;;;;;;;29.40;98.40;;;;;;5114728;28;19932;-76
2023/06/09 10:18:08;;;;;;;;;;;29.30;98.20;;;;;;5113751;28;19994;-76
2023/06/09 10:20:35;;;;;;;;;;;29.20;99.20;;;;;;5114070;28;19914;-78
2023/06/09 10:23:01;;;;;;;;;;;28.80;98.80;;;;;;5095446;28;19912;-76
2023/06/09 10:25:27;;;;;;;;;;;29.20;98.80;;;;;;5113969;28;19911;-76
2023/06/09 10:27:53;;;;;;;;;;;29.40;98.30;;;;;;5113953;28;19950;-77
2023/06/09 10:30:20;;;;;;;;;;;29.40;98.70;;;;;;5107327;28;20295;-75
2023/06/09 10:32:53;;;;;;;;;;;29.40;98.80;;;;;;5093086;28;19920;-75
2023/06/09 10:35:21;;;;;;;;;;;29.40;98.40;;;;;;5092939;28;19904;-75
2023/06/09 10:37:49;;;;;;;;;;;29.30;98.90;;;;;;5092683;28;19957;-76
2023/06/09 10:40:51;;;;;;;;;;;29.00;98.90;;;;;;5102642;28;19904;-76
2023/06/09 10:43:17;;;;;;;;;;;28.80;99.90;;;;;;5070786;28;20020;-76
2023/06/09 10:46:01;;;;;;;;;;;28.80;99.90;;;;;;5069957;28;19983;-76
2023/06/09 10:48:44;;;;;;;;;;;28.80;99.90;;;;;;5070463;28;20126;-76
2023/06/09 10:51:27;;;;;;;;;;;28.70;99.90;;;;;;5069094;28;20225;-75
2023/06/09 10:54:17;;;;;;;;;;;28.40;99.90;;;;;;5069153;28;19908;-77
2023/06/09 10:56:46;;;;;;;;;;;28.50;99.90;;;;;;5069506;28;20197;-76
2023/06/09 10:59:27;;;;;;;;;;;28.80;99.90;;;;;;5052303;28;20345;-77
2023/06/09 11:02:05;;;;;;;;;;;28.80;99.90;;;;;;5049313;28;20400;-76
2023/06/09 11:04:45;;;;;;;;;;;28.90;99.90;;;;;;5049359;28;19919;-76
2023/06/09 11:07:12;;;;;;;;;;;28.90;99.90;;;;;;5049171;28;20397;-74
2023/06/09 11:09:39;;;;;;;;;;;28.20;99.90;;;;;;5052893;28;19911;-75
2023/06/09 11:12:05;;;;;;;;;;;28.30;99.90;;;;;;5068187;28;19970;-76
2023/06/09 11:14:46;;;;;;;;;;;28.20;99.90;;;;;;5069010;28;20080;-77
2023/06/09 11:17:30;;;;;;;;;;;28.40;99.90;;;;;;5079980;28;20232;-76
2023/06/09 11:20:38;;;;;;;;;;;28.40;99.90;;;;;;5093477;28;19947;-77
2023/06/09 11:22:58;;;;;;;;;;;28.50;99.90;;;;;;5091007;28;19912;-76
2023/06/09 11:25:26;;;;;;;;;;;28.30;99.90;;;;;;5092361;28;19912;-76
2023/06/09 11:27:55;;;;;;;;;;;28.70;99.90;;;;;;5092449;28;19904;-76
2023/06/09 11:30:22;;;;;;;;;;;28.70;99.90;;;;;;5085816;28;20406;-76
2023/06/09 11:32:51;;;;;;;;;;;28.40;99.90;;;;;;5072876;28;19911;-76
2023/06/09 11:35:39;;;;;;;;;;;28.40;99.90;;;;;;5070849;28;19975;-77
2023/06/09 11:38:07;;;;;;;;;;;28.50;99.90;;;;;;5072242;28;19912;-76
2023/06/09 11:40:40;;;;;;;;;;;28.20;99.90;;;;;;5084516;28;20326;-76
2023/06/09 11:43:09;;;;;;;;;;;28.10;99.90;;;;;;5092333;28;20014;-75
2023/06/09 11:45:36;;;;;;;;;;;28.00;99.90;;;;;;5092399;28;19911;-76
2023/06/09 11:48:04;;;;;;;;;;;27.60;99.90;;;;;;5092101;28;19911;-77
2023/06/09 11:50:39;;;;;;;;;;;27.50;99.90;;;;;;5092055;28;19911;-75
2023/06/09 11:53:06;;;;;;;;;;;27.10;99.90;;;;;;5091657;28;19994;-76
2023/06/09 11:55:32;;;;;;;;;;;26.90;99.90;;;;;;5092215;28;19910;-76
2023/06/09 11:57:58;;;;;;;;;;;27.20;99.90;;;;;;5092235;28;20028;-77
2023/06/09 12:00:26;;;;;;;;;;;27.40;99.90;;;;;;5084970;28;20003;-76
2023/06/09 12:02:52;;;;;;;;;;;27.60;99.90;;;;;;5072275;28;20068;-75
2023/06/09 12:05:22;;;;;;;;;;;28.00;99.90;;;;;;5072145;28;20034;-75
2023/06/09 12:07:48;;;;;;;;;;;27.80;99.90;;;;;;5071857;28;19955;-75
2023/06/09 12:10:14;;;;;;;;;;;28.10;99.90;;;;;;5081307;28;19943;-76
2023/06/09 12:12:44;;;;;;;;;;;28.50;99.90;;;;;;5110269;28;19915;-75
2023/06/09 12:15:10;;;;;;;;;;;28.60;99.90;;;;;;5112255;28;19903;-76
2023/06/09 12:17:36;;;;;;;;;;;29.10;99.90;;;;;;5112265;28;19973;-76
2023/06/09 12:20:37;;;;;;;;;;;29.30;99.90;;;;;;5112338;28;20343;-75
2023/06/09 12:23:06;;;;;;;;;;;29.20;99.90;;;;;;5069126;28;19913;-75
2023/06/09 12:25:33;;;;;;;;;;;29.30;99.90;;;;;;5073317;28;19904;-75
2023/06/09 12:28:23;;;;;;;;;;;29.20;99.90;;;;;;5073258;28;20283;-75
2023/06/09 12:30:49;;;;;;;;;;;28.90;99.90;;;;;;5062681;28;19940;-76
2023/06/09 12:33:19;;;;;;;;;;;29.00;99.90;;;;;;5053294;28;20246;-76
2023/06/09 12:35:47;;;;;;;;;;;29.30;99.90;;;;;;5053529;28;19923;-75
2023/06/09 12:38:13;;;;;;;;;;;29.20;99.90;;;;;;5053001;28;19908;-75
2023/06/09 12:40:46;;;;;;;;;;;29.20;99.90;;;;;;5065810;28;19904;-74
2023/06/09 12:43:12;;;;;;;;;;;29.40;99.90;;;;;;5073130;28;19912;-76
2023/06/09 12:45:40;;;;;;;;;;;29.70;99.90;;;;;;5073435;28;20031;-75
2023/06/09 12:48:06;;;;;;;;;;;29.70;99.90;;;;;;5072903;28;19915;-75
2023/06/09 12:50:32;;;;;;;;;;;29.50;99.90;;;;;;5072862;28;20387;-76
2023/06/09 12:52:58;;;;;;;;;;;29.50;99.90;;;;;;5072746;28;19951;-75
2023/06/09 12:55:24;;;;;;;;;;;29.60;99.90;;;;;;5072681;28;19954;-76
2023/06/09 12:57:50;;;;;;;;;;;29.50;99.90;;;;;;5108612;28;19915;-75
2023/06/09 13:00:16;;;;;;;;;;;29.60;99.90;;;;;;5109201;28;19911;-77
2023/06/09 13:02:43;;;;;;;;;;;29.50;99.90;;;;;;5094844;28;19916;-75
2023/06/09 13:05:09;;;;;;;;;;;29.00;99.90;;;;;;5093656;28;19904;-75
2023/06/09 13:07:35;;;;;;;;;;;28.70;99.90;;;;;;5094820;28;19970;-75
2023/06/09 13:10:01;;;;;;;;;;;28.50;99.90;;;;;;5097190;28;20249;-75
2023/06/09 13:12:27;;;;;;;;;;;28.20;99.90;;;;;;5114795;28;19919;-75
2023/06/09 13:14:52;;;;;;;;;;;28.00;99.90;;;;;;5115172;28;19903;-74
2023/06/09 13:17:18;;;;;;;;;;;28.20;99.90;;;;;;5115521;28;19904;-74
2023/06/09 13:19:44;;;;;;;;;;;28.40;99.90;;;;;;5115325;28;19907;-74
2023/06/09 13:22:10;;;;;;;;;;;28.30;99.90;;;;;;5115094;28;20283;-74
2023/06/09 13:24:36;;;;;;;;;;;28.30;99.90;;;;;;5096680;28;19910;-75
2023/06/09 13:27:05;;;;;;;;;;;28.40;99.90;;;;;;5115151;28;19904;-76
2023/06/09 13:29:30;;;;;;;;;;;28.50;99.90;;;;;;5096606;28;19910;-75
2023/06/09 13:31:56;;;;;;;;;;;28.60;99.90;;;;;;5095463;28;20259;-75
2023/06/09 13:34:22;;;;;;;;;;;28.60;99.90;;;;;;5094581;28;19911;-75
2023/06/09 13:36:48;;;;;;;;;;;28.70;99.90;;;;;;5092203;28;19951;-76
2023/06/09 13:39:14;;;;;;;;;;;28.60;99.90;;;;;;5094012;28;19908;-75
2023/06/09 13:41:39;;;;;;;;;;;28.60;99.90;;;;;;5096382;28;20015;-76
2023/06/09 13:44:07;;;;;;;;;;;28.30;99.90;;;;;;5114270;28;20245;-76
2023/06/09 13:46:33;;;;;;;;;;;28.10;99.90;;;;;;5114970;28;19947;-76
2023/06/09 13:49:02;;;;;;;;;;;28.30;99.90;;;;;;5096301;28;19980;-76
2023/06/09 13:51:28;;;;;;;;;;;28.50;99.90;;;;;;5114969;28;19903;-76
2023/06/09 13:53:54;;;;;;;;;;;28.70;99.90;;;;;;5114031;28;19907;-75
2023/06/09 13:56:20;;;;;;;;;;;28.50;99.90;;;;;;5114099;28;20016;-75
2023/06/09 13:58:46;;;;;;;;;;;28.60;99.90;;;;;;5114701;28;19911;-77